Time;durP1;ratioP1;P1;durP2;ratioP2;P2;SDS_P1;SDS_P2;PMS_P1;PMS_P2;Temp;Humidity;BMP_temperature;BMP_pressure;BME280_temperature;BME280_humidity;BME280_pressure;Samples;Min_cycle;Max_cycle;Signal;HPM_P1;HPM_P2
2021/09/19 00:02:52;;;;;;;1.95;1.85;;;;;;;10.63;76.01;102669.50;6314169;28;20459;-72
2021/09/19 00:05:57;;;;;;;1.83;1.83;;;;;;;10.77;75.85;102666.03;6314456;28;20251;-72
2021/09/19 00:09:02;;;;;;;1.92;1.90;;;;;;;10.74;75.41;102663.63;6314859;28;20183;-72
2021/09/19 00:12:07;;;;;;;1.75;1.75;;;;;;;10.86;74.33;102664.97;6313890;28;20237;-72
2021/09/19 00:15:16;;;;;;;1.60;1.60;;;;;;;10.85;75.02;102668.75;6313751;28;20212;-72
2021/09/19 00:18:20;;;;;;;1.83;1.83;;;;;;;10.81;74.64;102672.81;6315153;28;20194;-72
2021/09/19 00:21:24;;;;;;;1.85;1.75;;;;;;;10.81;74.60;102670.09;6315045;28;20259;-73
2021/09/19 00:24:30;;;;;;;2.03;1.83;;;;;;;10.91;75.16;102668.06;6314909;28;20195;-72
2021/09/19 00:27:34;;;;;;;2.00;2.00;;;;;;;10.83;75.44;102670.81;6314641;28;20184;-71
2021/09/19 00:30:39;;;;;;;1.73;1.73;;;;;;;10.89;75.43;102663.78;6314804;28;20183;-71
2021/09/19 00:33:43;;;;;;;2.28;2.20;;;;;;;10.90;76.00;102670.94;6314522;28;20188;-72
2021/09/19 00:36:48;;;;;;;1.92;1.92;;;;;;;10.83;76.53;102675.41;6313532;28;20218;-72
2021/09/19 00:39:53;;;;;;;2.30;2.20;;;;;;;11.01;75.72;102657.78;6313474;28;20187;-71
2021/09/19 00:42:57;;;;;;;1.83;1.83;;;;;;;10.92;76.35;102667.00;6314486;28;20184;-72
2021/09/19 00:46:01;;;;;;;1.83;1.83;;;;;;;10.85;76.59;102671.47;6312578;28;20532;-72
2021/09/19 00:49:06;;;;;;;2.80;2.70;;;;;;;10.78;76.59;102670.47;6312966;28;20184;-73
2021/09/19 00:52:11;;;;;;;3.15;3.05;;;;;;;10.80;76.99;102687.53;6313984;28;20245;-72
2021/09/19 00:55:19;;;;;;;2.78;2.72;;;;;;;10.76;76.66;102675.22;6314125;28;20211;-72
2021/09/19 00:58:23;;;;;;;3.90;2.42;;;;;;;10.62;76.88;102684.16;6313821;28;20183;-73
2021/09/19 01:01:28;;;;;;;2.20;2.20;;;;;;;10.57;76.87;102679.22;6313826;28;20246;-73
2021/09/19 01:04:33;;;;;;;2.13;2.03;;;;;;;10.58;76.85;102672.72;6313396;28;20349;-72
2021/09/19 01:07:37;;;;;;;2.10;2.10;;;;;;;10.71;76.51;102666.72;6313824;28;20219;-72
2021/09/19 01:10:44;;;;;;;1.98;1.98;;;;;;;10.54;76.29;102686.88;6313910;28;20189;-72
2021/09/19 01:13:50;;;;;;;2.28;2.17;;;;;;;10.52;75.77;102678.03;6312664;28;20191;-72
2021/09/19 01:16:56;;;;;;;2.05;2.05;;;;;;;10.60;76.20;102672.56;6313585;28;20274;-72
2021/09/19 01:20:00;;;;;;;1.95;1.95;;;;;;;10.46;75.88;102674.09;6312219;28;20183;-72
2021/09/19 01:23:10;;;;;;;2.03;1.83;;;;;;;10.50;75.99;102669.16;6313443;28;20190;-72
2021/09/19 01:26:15;;;;;;;1.70;1.70;;;;;;;10.50;75.99;102675.44;6313105;28;20370;-72
2021/09/19 01:29:19;;;;;;;2.13;2.13;;;;;;;10.41;75.88;102667.44;6313034;28;20183;-73
2021/09/19 01:32:23;;;;;;;2.17;2.00;;;;;;;10.46;76.39;102670.50;6311966;28;20206;-72
2021/09/19 01:35:29;;;;;;;2.13;2.03;;;;;;;10.35;76.50;102673.63;6311807;28;20534;-72
2021/09/19 01:38:33;;;;;;;2.17;2.08;;;;;;;10.50;76.25;102674.63;6312178;28;20187;-73
2021/09/19 01:41:39;;;;;;;1.70;1.70;;;;;;;10.35;75.02;102670.88;6311753;28;20467;-72
2021/09/19 01:44:43;;;;;;;1.90;1.90;;;;;;;10.34;75.44;102669.16;6312653;28;20183;-72
2021/09/19 01:47:48;;;;;;;2.08;1.90;;;;;;;10.39;75.22;102661.31;6312695;28;20187;-72
2021/09/19 01:50:53;;;;;;;2.00;2.00;;;;;;;10.42;74.67;102671.88;6311954;28;20219;-72
2021/09/19 01:53:57;;;;;;;2.00;2.00;;;;;;;10.40;75.07;102668.50;6312480;28;20191;-72
2021/09/19 01:57:03;;;;;;;3.97;3.88;;;;;;;10.22;74.88;102665.91;6311310;28;20269;-72
2021/09/19 02:00:09;;;;;;;3.42;3.30;;;;;;;10.24;74.33;102663.88;6312477;28;20222;-72
2021/09/19 02:03:17;;;;;;;2.10;2.10;;;;;;;10.20;75.30;102672.56;6311188;28;20227;-73
2021/09/19 02:06:23;;;;;;;2.35;2.35;;;;;;;10.27;73.83;102668.16;6311952;28;20225;-73
2021/09/19 02:09:27;;;;;;;1.92;1.90;;;;;;;10.31;74.47;102664.03;6312670;28;20190;-72
2021/09/19 02:12:33;;;;;;;2.63;2.53;;;;;;;10.23;73.40;102664.91;6312376;28;20183;-73
2021/09/19 02:15:37;;;;;;;2.10;2.10;;;;;;;10.28;74.54;102653.47;6312632;28;20183;-72
2021/09/19 02:18:42;;;;;;;1.70;1.70;;;;;;;10.19;74.57;102659.97;6312174;28;20189;-72
2021/09/19 02:21:46;;;;;;;2.13;2.05;;;;;;;10.13;73.95;102666.09;6312217;28;20221;-73
2021/09/19 02:24:50;;;;;;;1.90;1.90;;;;;;;10.18;73.94;102669.16;6311529;28;20183;-73
2021/09/19 02:27:55;;;;;;;2.22;2.10;;;;;;;10.22;74.35;102667.81;6312128;28;20264;-72
2021/09/19 02:31:00;;;;;;;1.90;1.90;;;;;;;10.33;73.36;102653.81;6311447;28;20206;-72
2021/09/19 02:34:04;;;;;;;2.10;2.00;;;;;;;10.26;72.21;102660.97;6312441;28;20188;-73
2021/09/19 02:37:10;;;;;;;1.90;1.90;;;;;;;10.25;72.79;102653.81;6310972;28;20278;-72
2021/09/19 02:40:16;;;;;;;1.52;1.52;;;;;;;10.26;72.39;102650.06;6312021;28;20183;-72
2021/09/19 02:43:22;;;;;;;1.90;1.90;;;;;;;10.41;71.60;102659.25;6311955;28;20191;-73
2021/09/19 02:46:26;;;;;;;2.00;1.90;;;;;;;10.39;71.61;102666.78;6312030;28;20187;-73
2021/09/19 02:49:30;;;;;;;2.03;2.00;;;;;;;10.35;70.84;102659.97;6312148;28;20261;-72
2021/09/19 02:52:35;;;;;;;1.90;1.90;;;;;;;10.37;70.74;102663.38;6311029;28;20453;-72
2021/09/19 02:55:39;;;;;;;1.95;1.95;;;;;;;10.45;72.03;102656.00;6311727;28;20184;-72
2021/09/19 02:58:44;;;;;;;1.70;1.70;;;;;;;10.56;71.47;102658.38;6311242;28;20318;-72
2021/09/19 03:01:49;;;;;;;1.92;1.90;;;;;;;10.54;71.88;102662.31;6311677;28;20222;-73
2021/09/19 03:04:53;;;;;;;1.95;1.92;;;;;;;10.60;72.00;102658.91;6312146;28;20235;-72
2021/09/19 03:07:58;;;;;;;1.90;1.90;;;;;;;10.53;71.03;102652.41;6312820;28;20358;-72
2021/09/19 03:11:02;;;;;;;1.73;1.73;;;;;;;10.47;69.89;102659.44;6316644;28;20187;-72
2021/09/19 03:14:08;;;;;;;1.80;1.80;;;;;;;10.49;69.78;102656.53;6316298;28;20215;-72
2021/09/19 03:17:13;;;;;;;1.85;1.85;;;;;;;10.43;70.22;102657.19;6316134;28;20211;-72
2021/09/19 03:20:18;;;;;;;3.58;3.47;;;;;;;10.50;69.29;102660.97;6315118;28;20475;-74
2021/09/19 03:23:23;;;;;;;1.88;1.88;;;;;;;10.57;69.19;102659.25;6316107;28;20184;-73
2021/09/19 03:26:27;;;;;;;1.90;1.90;;;;;;;10.62;70.60;102662.31;6316185;28;20266;-73
2021/09/19 03:29:33;;;;;;;1.70;1.70;;;;;;;10.57;69.89;102659.25;6315989;28;20189;-73
2021/09/19 03:32:38;;;;;;;1.50;1.50;;;;;;;10.34;69.14;102663.72;6315999;28;20183;-73
2021/09/19 03:35:42;;;;;;;2.15;1.90;;;;;;;10.42;69.72;102660.97;6316258;28;20305;-73
2021/09/19 03:38:46;;;;;;;1.75;1.67;;;;;;;10.46;69.49;102662.31;6314677;28;20441;-73
2021/09/19 03:41:50;;;;;;;1.80;1.80;;;;;;;10.45;70.04;102660.63;6316146;28;20190;-73
2021/09/19 03:44:55;;;;;;;1.98;1.98;;;;;;;10.51;69.77;102670.84;6315282;28;20183;-73
2021/09/19 03:48:03;;;;;;;1.85;1.60;;;;;;;10.36;68.10;102672.56;6315786;28;20298;-74
2021/09/19 03:51:09;;;;;;;1.70;1.70;;;;;;;10.29;67.69;102660.63;6314529;28;20522;-73
2021/09/19 03:54:13;;;;;;;5.97;1.80;;;;;;;10.38;68.17;102665.91;6315386;28;20215;-71
2021/09/19 03:57:18;;;;;;;1.55;1.55;;;;;;;10.43;68.78;102651.75;6314329;28;20509;-71
2021/09/19 04:00:23;;;;;;;1.90;1.90;;;;;;;10.50;69.83;102663.69;6314232;28;20494;-71
2021/09/19 04:03:28;;;;;;;1.50;1.50;;;;;;;10.47;68.89;102664.03;6314522;28;20277;-71
2021/09/19 04:06:33;;;;;;;2.03;2.03;;;;;;;10.45;68.62;102666.09;6314121;28;20255;-72
2021/09/19 04:09:37;;;;;;;2.00;2.00;;;;;;;10.34;69.02;102669.16;6314055;28;20466;-72
2021/09/19 04:12:42;;;;;;;1.70;1.70;;;;;;;10.32;69.26;102660.31;6315329;28;20195;-72
2021/09/19 04:15:48;;;;;;;1.80;1.75;;;;;;;10.28;68.54;102654.31;6315226;28;20184;-71
2021/09/19 04:18:52;;;;;;;1.77;1.77;;;;;;;10.35;68.50;102643.59;6314050;28;20283;-72
2021/09/19 04:21:56;;;;;;;2.05;1.98;;;;;;;10.39;68.60;102647.66;6313726;28;20184;-71
2021/09/19 04:25:00;;;;;;;2.08;2.08;;;;;;;10.46;68.10;102662.31;6313730;28;20250;-72
2021/09/19 04:28:05;;;;;;;2.10;2.00;;;;;;;10.42;68.81;102655.53;6315014;28;20188;-72
2021/09/19 04:31:11;;;;;;;1.95;1.95;;;;;;;10.44;68.43;102669.84;6314544;28;20463;-71
2021/09/19 04:34:16;;;;;;;3.80;2.00;;;;;;;10.38;68.20;102671.38;6313403;28;20479;-72
2021/09/19 04:37:20;;;;;;;1.70;1.70;;;;;;;10.33;68.04;102662.00;6313804;28;20218;-71
2021/09/19 04:40:24;;;;;;;1.73;1.73;;;;;;;10.34;68.86;102658.25;6313201;28;20370;-72
2021/09/19 04:43:29;;;;;;;1.85;1.85;;;;;;;10.37;68.64;102660.63;6314249;28;20221;-72
2021/09/19 04:46:34;;;;;;;1.70;1.70;;;;;;;10.37;68.63;102663.38;6314511;28;20189;-72
2021/09/19 04:49:39;;;;;;;1.90;1.90;;;;;;;10.33;68.95;102668.31;6313020;28;20432;-72
2021/09/19 04:52:43;;;;;;;1.77;1.77;;;;;;;10.37;69.39;102663.38;6313417;28;20261;-72
2021/09/19 04:55:47;;;;;;;1.70;1.70;;;;;;;10.48;67.86;102660.28;6312893;28;20238;-72
2021/09/19 04:58:51;;;;;;;1.70;1.70;;;;;;;10.53;68.27;102652.41;6313849;28;20238;-72
2021/09/19 05:01:57;;;;;;;2.08;1.85;;;;;;;10.37;68.09;102649.72;6313951;28;20243;-72
2021/09/19 05:05:01;;;;;;;1.85;1.80;;;;;;;10.48;67.91;102660.28;6312709;28;20258;-73
2021/09/19 05:08:06;;;;;;;2.00;2.00;;;;;;;10.44;67.85;102648.00;6312582;28;20522;-73
2021/09/19 05:11:10;;;;;;;1.90;1.90;;;;;;;10.59;68.04;102663.50;6313957;28;20211;-73
2021/09/19 05:14:15;;;;;;;2.08;2.08;;;;;;;10.54;68.47;102670.50;6313947;28;20250;-73
2021/09/19 05:17:21;;;;;;;1.80;1.80;;;;;;;10.45;68.73;102677.00;6312410;28;20508;-73
2021/09/19 05:20:25;;;;;;;3.47;2.00;;;;;;;10.50;68.64;102669.16;6312352;28;20184;-73
2021/09/19 05:23:29;;;;;;;1.70;1.70;;;;;;;10.51;68.04;102670.84;6313331;28;20270;-73
2021/09/19 05:26:33;;;;;;;2.15;2.10;;;;;;;10.41;67.84;102672.91;6312293;28;20440;-73
2021/09/19 05:29:38;;;;;;;3.22;2.20;;;;;;;10.51;67.93;102681.75;6313111;28;20219;-73
2021/09/19 05:32:43;;;;;;;1.70;1.70;;;;;;;10.49;68.88;102672.91;6312139;28;20183;-73
2021/09/19 05:35:48;;;;;;;1.95;1.85;;;;;;;10.52;68.37;102686.22;6311979;28;20370;-73
2021/09/19 05:38:52;;;;;;;1.90;1.90;;;;;;;10.53;68.51;102677.84;6311871;28;20210;-73
2021/09/19 05:41:56;;;;;;;1.90;1.90;;;;;;;10.53;68.60;102679.72;6313333;28;20191;-73
2021/09/19 05:45:01;;;;;;;1.80;1.80;;;;;;;10.62;68.66;102678.69;6312594;28;20187;-73
2021/09/19 05:48:07;;;;;;;2.50;2.13;;;;;;;10.56;68.40;102679.38;6313165;28;20298;-73
2021/09/19 05:51:12;;;;;;;1.90;1.90;;;;;;;10.57;69.13;102678.34;6313204;28;20183;-73
2021/09/19 05:54:17;;;;;;;2.17;2.03;;;;;;;10.55;70.31;102694.88;6313132;28;20183;-73
2021/09/19 05:57:21;;;;;;;2.60;2.40;;;;;;;10.58;70.29;102682.78;6312695;28;20184;-73
2021/09/19 06:00:27;;;;;;;2.30;2.30;;;;;;;10.55;70.91;102680.41;6311440;28;20402;-73
2021/09/19 06:03:32;;;;;;;2.13;2.03;;;;;;;10.56;70.00;102684.81;6312462;28;20235;-73
2021/09/19 06:06:36;;;;;;;1.95;1.95;;;;;;;10.44;70.73;102675.28;6312520;28;20187;-73
2021/09/19 06:09:41;;;;;;;1.77;1.77;;;;;;;10.51;70.53;102681.75;6312354;28;20187;-73
2021/09/19 06:12:45;;;;;;;2.17;2.00;;;;;;;10.48;71.82;102684.81;6311619;28;20483;-73
2021/09/19 06:15:49;;;;;;;1.70;1.70;;;;;;;10.52;70.76;102678.03;6311331;28;20426;-73
2021/09/19 06:18:54;;;;;;;2.25;2.08;;;;;;;10.34;71.79;102674.63;6311278;28;20510;-73
2021/09/19 06:22:01;;;;;;;2.90;2.10;;;;;;;10.56;72.75;102676.63;6312295;28;20183;-73
2021/09/19 06:25:06;;;;;;;2.78;2.55;;;;;;;10.58;71.35;102674.56;6312636;28;20215;-73
2021/09/19 06:28:12;;;;;;;2.28;2.20;;;;;;;10.46;70.70;102678.69;6311173;28;20479;-73
2021/09/19 06:31:16;;;;;;;2.70;2.60;;;;;;;10.52;70.82;102680.75;6311145;28;20495;-73
2021/09/19 06:34:22;;;;;;;3.35;3.25;;;;;;;10.62;71.92;102673.22;6312168;28;20183;-73
2021/09/19 06:37:26;;;;;;;2.70;2.50;;;;;;;10.62;71.00;102678.69;6311164;28;20471;-73
2021/09/19 06:40:30;;;;;;;2.20;2.10;;;;;;;10.61;71.76;102682.44;6312441;28;20271;-73
2021/09/19 06:43:34;;;;;;;2.40;2.30;;;;;;;10.73;71.84;102674.75;6315855;28;20215;-73
2021/09/19 06:46:39;;;;;;;2.13;1.90;;;;;;;10.83;70.30;102680.88;6317624;28;20189;-73
2021/09/19 06:49:44;;;;;;;2.20;2.10;;;;;;;10.66;71.48;102680.03;6315995;28;20240;-73
2021/09/19 06:52:48;;;;;;;8.45;2.28;;;;;;;10.69;71.94;102671.50;6316839;28;20184;-73
2021/09/19 06:55:52;;;;;;;3.25;2.10;;;;;;;10.72;72.67;102662.09;6317013;28;20191;-73
2021/09/19 06:58:57;;;;;;;1.88;1.88;;;;;;;10.83;73.32;102668.06;6315720;28;20511;-73
2021/09/19 07:02:01;;;;;;;2.50;2.30;;;;;;;10.73;73.23;102667.41;6315827;28;20199;-74
2021/09/19 07:05:08;;;;;;;2.10;2.10;;;;;;;10.93;73.89;102671.47;6316736;28;20233;-73
2021/09/19 07:08:14;;;;;;;2.50;2.50;;;;;;;10.77;73.73;102671.50;6316941;28;20183;-73
2021/09/19 07:11:18;;;;;;;2.50;2.30;;;;;;;10.78;74.41;102667.75;6315301;28;20493;-73
2021/09/19 07:14:22;;;;;;;4.60;2.75;;;;;;;10.74;74.56;102668.25;6316632;28;20225;-73
2021/09/19 07:17:27;;;;;;;2.90;2.35;;;;;;;10.92;74.48;102669.75;6316956;28;20286;-73
2021/09/19 07:20:32;;;;;;;2.30;2.28;;;;;;;10.83;74.85;102678.13;6316091;28;20216;-73
2021/09/19 07:23:37;;;;;;;2.47;2.38;;;;;;;10.83;74.78;102681.72;6314935;28;20475;-73
2021/09/19 07:26:41;;;;;;;2.30;2.30;;;;;;;10.91;75.73;102678.97;6315992;28;20184;-73
2021/09/19 07:29:46;;;;;;;2.28;2.28;;;;;;;10.96;75.37;102687.50;6314974;28;20483;-73
2021/09/19 07:32:50;;;;;;;2.33;2.22;;;;;;;10.97;75.18;102689.19;6316294;28;20183;-73
2021/09/19 07:35:56;;;;;;;2.15;2.10;;;;;;;10.78;76.14;102695.06;6314779;28;20222;-72
2021/09/19 07:39:05;;;;;;;2.53;2.42;;;;;;;10.83;76.56;102692.66;6316031;28;20207;-72
2021/09/19 07:42:11;;;;;;;2.33;2.22;;;;;;;10.72;78.03;102689.41;6314652;28;20530;-72
2021/09/19 07:45:15;;;;;;;2.58;2.38;;;;;;;10.62;78.65;102695.94;6314645;28;20494;-73
2021/09/19 07:48:21;;;;;;;2.42;2.33;;;;;;;10.82;79.68;102685.47;6314514;28;20628;-73
2021/09/19 07:51:27;;;;;;;2.35;2.25;;;;;;;10.83;79.96;102695.38;6315696;28;20225;-72
2021/09/19 07:54:32;;;;;;;2.63;2.42;;;;;;;10.62;80.77;102689.59;6314101;28;20183;-73
2021/09/19 07:57:36;;;;;;;2.80;2.60;;;;;;;10.65;82.29;102683.81;6314176;28;20399;-73
2021/09/19 08:00:40;;;;;;;2.80;2.58;;;;;;;10.88;82.07;102684.78;6315072;28;20279;-71
2021/09/19 08:03:44;;;;;;;3.03;2.88;;;;;;;11.07;82.76;102684.38;6314315;28;20266;-72
2021/09/19 08:06:50;;;;;;;2.60;2.50;;;;;;;11.14;82.39;102685.41;6314452;28;20184;-72
2021/09/19 08:09:54;;;;;;;2.45;2.38;;;;;;;11.02;82.98;102686.78;6315258;28;20241;-73
2021/09/19 08:12:58;;;;;;;2.60;2.50;;;;;;;11.00;82.75;102688.84;6314975;28;20191;-73
2021/09/19 08:16:02;;;;;;;2.70;2.60;;;;;;;11.06;82.32;102693.63;6314153;28;20183;-73
2021/09/19 08:19:09;;;;;;;2.80;2.70;;;;;;;11.18;83.28;102697.66;6314864;28;20184;-73
2021/09/19 08:22:14;;;;;;;2.95;2.72;;;;;;;11.16;82.96;102705.19;6315065;28;20187;-73
2021/09/19 08:25:19;;;;;;;3.13;3.03;;;;;;;11.20;82.67;102700.22;6313989;28;20219;-71
2021/09/19 08:28:23;;;;;;;2.85;2.63;;;;;;;11.25;83.33;102698.66;6313586;28;20475;-73
2021/09/19 08:31:28;;;;;;;2.75;2.70;;;;;;;11.28;84.28;102700.19;6314802;28;20230;-73
2021/09/19 08:34:32;;;;;;;2.83;2.80;;;;;;;11.37;82.50;102711.94;6313260;28;20194;-73
2021/09/19 08:37:39;;;;;;;3.08;2.80;;;;;;;11.08;82.23;102702.47;6314040;28;20184;-74
2021/09/19 08:40:43;;;;;;;3.28;3.17;;;;;;;11.17;84.44;102709.59;6313211;28;20413;-73
2021/09/19 08:43:49;;;;;;;2.70;2.60;;;;;;;11.15;82.44;102705.34;6313526;28;20244;-73
2021/09/19 08:46:53;;;;;;;2.78;2.70;;;;;;;11.07;83.28;102717.16;6312912;28;20184;-74
2021/09/19 08:49:58;;;;;;;3.10;3.00;;;;;;;11.29;83.40;102710.09;6314130;28;20187;-73
2021/09/19 08:53:03;;;;;;;3.30;2.95;;;;;;;11.24;82.51;102707.91;6313180;28;20191;-73
2021/09/19 08:56:10;;;;;;;3.20;3.00;;;;;;;11.20;82.92;102720.19;6313635;28;20188;-73
2021/09/19 08:59:14;;;;;;;2.95;2.95;;;;;;;11.36;83.14;102715.69;6312713;28;20215;-74
2021/09/19 09:02:21;;;;;;;3.30;3.20;;;;;;;11.40;82.62;102717.06;6312550;28;20598;-73
2021/09/19 09:05:28;;;;;;;2.90;2.80;;;;;;;11.49;80.32;102715.97;6313083;28;20190;-72
2021/09/19 09:08:34;;;;;;;3.05;2.88;;;;;;;11.55;80.66;102724.34;6312852;28;20184;-73
2021/09/19 09:11:38;;;;;;;2.80;2.70;;;;;;;11.64;79.96;102725.13;6313332;28;20210;-74
2021/09/19 09:14:47;;;;;;;3.13;2.60;;;;;;;11.69;79.07;102739.16;6312935;28;20184;-73
2021/09/19 09:17:51;;;;;;;3.85;2.65;;;;;;;11.51;81.02;102728.44;6312805;28;20270;-74
2021/09/19 09:20:58;;;;;;;2.78;2.78;;;;;;;11.74;79.49;102742.19;6313168;28;20257;-73
2021/09/19 09:24:04;;;;;;;2.92;2.92;;;;;;;11.67;81.72;102744.78;6313115;28;20219;-73
2021/09/19 09:27:23;;;;;;;2.80;2.70;;;;;;;11.53;82.49;102734.56;6312171;28;20448;-73
2021/09/19 09:30:27;;;;;;;4.95;3.08;;;;;;;11.62;82.96;102738.13;6312322;28;20187;-73
2021/09/19 09:33:31;;;;;;;4.03;3.80;;;;;;;11.61;82.09;102736.41;6312259;28;20267;-72
2021/09/19 09:36:39;;;;;;;3.30;3.10;;;;;;;11.68;82.00;102727.38;6311886;28;20423;-73
2021/09/19 09:39:45;;;;;;;3.38;3.13;;;;;;;11.63;83.10;102728.91;6313128;28;20245;-74
2021/09/19 09:43:07;;;;;;;3.75;3.45;;;;;;;11.78;82.91;102732.63;6312588;28;20275;-72
2021/09/19 09:46:12;;;;;;;3.83;3.53;;;;;;;12.01;82.15;102733.53;6311548;28;20433;-74
2021/09/19 09:49:21;;;;;;;3.20;3.10;;;;;;;12.10;80.70;102726.94;6312755;28;20184;-77
2021/09/19 09:52:27;;;;;;;3.13;3.03;;;;;;;11.77;79.41;102717.25;6311927;28;20225;-73
2021/09/19 09:55:33;;;;;;;2.50;2.50;;;;;;;11.69;75.34;102728.22;6312783;28;20184;-72
2021/09/19 09:58:39;;;;;;;2.90;2.70;;;;;;;11.65;73.96;102721.38;6312404;28;20206;-72
2021/09/19 10:01:44;;;;;;;2.70;2.70;;;;;;;11.60;73.49;102734.72;6311332;28;20211;-72
2021/09/19 10:04:51;;;;;;;3.42;2.67;;;;;;;11.66;73.40;102736.72;6311502;28;20425;-72
2021/09/19 10:07:57;;;;;;;3.00;2.90;;;;;;;11.66;73.24;102734.00;6312399;28;20251;-72
2021/09/19 10:11:03;;;;;;;2.70;2.60;;;;;;;11.60;75.00;102719.19;6312452;28;20261;-73
2021/09/19 10:14:09;;;;;;;3.22;3.10;;;;;;;11.57;74.56;102729.63;6312369;28;20230;-72
2021/09/19 10:17:13;;;;;;;2.80;2.65;;;;;;;11.67;73.03;102719.31;6311778;28;20184;-72
2021/09/19 10:20:19;;;;;;;2.60;2.60;;;;;;;11.64;72.36;102725.13;6312200;28;20194;-71
2021/09/19 10:23:28;;;;;;;2.70;2.65;;;;;;;11.68;72.57;102726.50;6311071;28;20183;-72
2021/09/19 10:26:33;;;;;;;2.83;2.80;;;;;;;11.68;72.42;102731.97;6310892;28;20358;-73
2021/09/19 10:29:38;;;;;;;2.97;2.90;;;;;;;11.80;73.32;102731.41;6311533;28;20290;-72
2021/09/19 10:32:44;;;;;;;2.83;2.63;;;;;;;11.81;72.84;102732.28;6311581;28;20425;-72
2021/09/19 10:35:50;;;;;;;3.38;3.25;;;;;;;11.86;73.64;102727.13;6311095;28;20184;-72
2021/09/19 10:39:16;;;;;;;3.72;3.33;;;;;;;11.72;71.33;102722.41;6311960;28;20215;-72
2021/09/19 10:42:28;;;;;;;3.05;2.92;;;;;;;11.91;72.29;102743.84;6312038;28;20275;-72
2021/09/19 10:45:42;;;;;;;3.30;3.20;;;;;;;11.92;72.14;102734.59;6312117;28;20215;-72
2021/09/19 10:48:48;;;;;;;3.00;2.80;;;;;;;11.93;71.83;102741.78;6310744;28;20395;-72
2021/09/19 10:52:09;;;;;;;3.42;3.33;;;;;;;11.87;69.80;102728.81;6311231;28;20518;-72
2021/09/19 10:55:20;;;;;;;3.25;3.05;;;;;;;11.87;71.10;102721.44;6312089;28;20184;-72
2021/09/19 10:58:29;;;;;;;3.20;3.10;;;;;;;12.00;71.54;102726.31;6311675;28;20184;-72
2021/09/19 11:01:37;;;;;;;3.25;3.03;;;;;;;11.99;70.59;102724.66;6310418;28;20218;-72
2021/09/19 11:04:41;;;;;;;3.65;3.30;;;;;;;11.94;71.35;102727.03;6310842;28;20443;-71
2021/09/19 11:07:46;;;;;;;3.15;3.00;;;;;;;11.90;72.50;102731.19;6310829;28;20206;-72
2021/09/19 11:11:24;;;;;;;3.45;3.28;;;;;;;11.74;71.80;102731.25;6311441;28;20184;-72
2021/09/19 11:14:56;;;;;;;3.33;3.20;;;;;;;11.59;72.16;102730.28;6212932;28;20206;-72
2021/09/19 11:18:00;;;;;;;5.82;3.38;;;;;;;11.75;72.68;102724.78;6311734;28;20253;-72
2021/09/19 11:21:13;;;;;;;3.50;3.40;;;;;;;11.80;73.08;102725.09;6311642;28;20215;-72
2021/09/19 11:24:24;;;;;;;3.40;3.30;;;;;;;11.73;72.12;102732.31;6311465;28;20183;-72
2021/09/19 11:27:31;;;;;;;3.60;3.45;;;;;;;11.80;72.58;102722.34;6311314;28;20183;-72
2021/09/19 11:30:37;;;;;;;3.55;3.45;;;;;;;11.68;72.28;102715.56;6316102;28;20184;-72
2021/09/19 11:33:42;;;;;;;3.15;2.92;;;;;;;11.59;73.16;102733.03;6315860;28;20257;-71
2021/09/19 11:36:49;;;;;;;3.67;3.58;;;;;;;11.48;73.39;102719.75;6314673;28;20255;-71
2021/09/19 11:39:54;;;;;;;3.63;3.35;;;;;;;11.49;75.95;102725.03;6314433;28;20184;-72
2021/09/19 11:43:06;;;;;;;3.42;3.33;;;;;;;11.36;75.07;102723.88;6315737;28;20214;-72
2021/09/19 11:46:15;;;;;;;3.47;3.30;;;;;;;11.48;75.04;102720.59;6315346;28;20190;-72
2021/09/19 11:49:20;;;;;;;3.58;3.47;;;;;;;11.56;74.38;102730.63;6315600;28;20219;-72
2021/09/19 11:52:25;;;;;;;4.30;3.90;;;;;;;11.51;75.74;102725.72;6315515;28;20195;-72
2021/09/19 11:55:29;;;;;;;4.93;4.07;;;;;;;11.52;75.94;102732.03;6315421;28;20301;-72
2021/09/19 11:58:33;;;;;;;3.88;3.63;;;;;;;11.53;74.92;102717.34;6315612;28;20229;-72
2021/09/19 12:01:40;;;;;;;3.60;3.33;;;;;;;11.51;75.48;102724.84;6315169;28;20246;-71
2021/09/19 12:04:46;;;;;;;4.40;4.20;;;;;;;11.57;74.81;102718.69;6314372;28;20515;-71
2021/09/19 12:07:50;;;;;;;4.32;4.13;;;;;;;11.53;76.10;102717.34;6315398;28;20188;-71
2021/09/19 12:10:55;;;;;;;3.38;3.28;;;;;;;11.55;74.12;102726.22;6315236;28;20184;-71
2021/09/19 12:13:59;;;;;;;4.55;3.72;;;;;;;11.52;74.38;102715.63;6313970;28;20188;-72
2021/09/19 12:17:07;;;;;;;4.30;4.00;;;;;;;11.49;74.38;102713.25;6315180;28;20184;-71
2021/09/19 12:20:13;;;;;;;4.50;4.05;;;;;;;11.55;74.71;102718.00;6314043;28;20184;-71
2021/09/19 12:23:18;;;;;;;3.90;3.70;;;;;;;11.65;73.03;102715.91;6313986;28;20530;-72
2021/09/19 12:26:24;;;;;;;4.05;3.85;;;;;;;11.61;73.36;102714.53;6314594;28;20183;-72
2021/09/19 12:29:28;;;;;;;3.90;3.70;;;;;;;11.68;73.65;102710.97;6314792;28;20190;-72
2021/09/19 12:32:36;;;;;;;3.72;3.60;;;;;;;11.63;71.36;102712.50;6313476;28;20485;-71
2021/09/19 12:35:41;;;;;;;3.45;3.35;;;;;;;11.55;72.25;102705.22;6313888;28;20184;-71
2021/09/19 12:38:45;;;;;;;3.92;3.63;;;;;;;11.59;71.40;102711.16;6313144;28;20238;-72
2021/09/19 12:41:52;;;;;;;3.97;3.67;;;;;;;11.73;70.28;102702.22;6313459;28;20190;-72
2021/09/19 12:44:57;;;;;;;3.75;3.65;;;;;;;11.78;70.60;102705.28;6314512;28;20215;-72
2021/09/19 12:48:06;;;;;;;3.63;3.55;;;;;;;11.71;70.29;102701.56;6313133;28;20215;-72
2021/09/19 12:51:15;;;;;;;4.28;4.07;;;;;;;11.76;70.56;102707.34;6314006;28;20286;-71
2021/09/19 12:54:25;;;;;;;3.90;3.80;;;;;;;11.86;71.11;102702.50;6313715;28;20188;-72
2021/09/19 12:57:32;;;;;;;4.68;3.75;;;;;;;12.01;71.77;102706.16;6312694;28;20184;-71
2021/09/19 13:00:37;;;;;;;4.05;3.95;;;;;;;11.91;70.75;102702.81;6312637;28;20471;-71
2021/09/19 13:03:47;;;;;;;3.97;3.70;;;;;;;11.86;68.90;102699.75;6312713;28;20250;-71
2021/09/19 13:06:51;;;;;;;4.22;3.92;;;;;;;12.09;69.35;102700.63;6312416;28;20567;-73
2021/09/19 13:09:55;;;;;;;3.63;3.53;;;;;;;12.12;68.69;102707.63;6313639;28;20250;-72
2021/09/19 13:13:00;;;;;;;4.00;3.70;;;;;;;12.05;67.74;102701.16;6313297;28;20195;-72
2021/09/19 13:16:05;;;;;;;3.50;3.40;;;;;;;12.01;66.70;102697.94;6312449;28;20189;-70
2021/09/19 13:19:11;;;;;;;3.30;3.17;;;;;;;12.23;67.26;102694.34;6313394;28;20247;-70
2021/09/19 13:22:18;;;;;;;3.72;3.53;;;;;;;12.09;67.20;102694.31;6312902;28;20265;-73
2021/09/19 13:25:23;;;;;;;3.33;3.22;;;;;;;11.99;66.12;102691.81;6312535;28;20184;-71
2021/09/19 13:28:27;;;;;;;3.30;3.20;;;;;;;12.01;66.66;102684.28;6313331;28;20191;-71
2021/09/19 13:31:31;;;;;;;3.50;3.40;;;;;;;12.14;67.70;102695.47;6313203;28;20215;-71
2021/09/19 13:34:37;;;;;;;3.95;3.70;;;;;;;12.14;67.48;102690.00;6313124;28;20192;-71
2021/09/19 13:37:42;;;;;;;3.55;3.33;;;;;;;12.14;65.71;102700.94;6312784;28;20183;-71
2021/09/19 13:40:46;;;;;;;3.63;3.53;;;;;;;11.98;64.09;102690.09;6313068;28;20183;-71
2021/09/19 13:43:51;;;;;;;4.22;3.13;;;;;;;12.05;64.91;102691.06;6313101;28;20276;-71
2021/09/19 13:46:56;;;;;;;3.30;3.05;;;;;;;12.21;64.51;102682.75;6311933;28;20215;-72
2021/09/19 13:50:02;;;;;;;3.40;3.30;;;;;;;12.03;64.33;102682.19;6312975;28;20305;-71
2021/09/19 13:53:06;;;;;;;3.45;3.35;;;;;;;12.20;65.52;102678.28;6312127;28;20219;-71
2021/09/19 13:56:11;;;;;;;3.60;3.40;;;;;;;12.20;65.17;102678.28;6312841;28;20183;-71
2021/09/19 13:59:16;;;;;;;3.28;3.17;;;;;;;12.17;64.79;102672.34;6311367;28;20494;-73
2021/09/19 14:02:20;;;;;;;3.30;3.20;;;;;;;12.12;63.70;102680.25;6312877;28;20206;-71
2021/09/19 14:05:26;;;;;;;3.50;3.30;;;;;;;12.09;63.05;102673.28;6311813;28;20461;-71
2021/09/19 14:08:30;;;;;;;3.08;2.97;;;;;;;12.12;62.97;102674.78;6311307;28;20191;-73
2021/09/19 14:11:37;;;;;;;2.92;2.83;;;;;;;12.08;59.38;102685.25;6312159;28;20184;-71
2021/09/19 14:14:41;;;;;;;2.63;2.63;;;;;;;12.08;60.28;102689.84;6311247;28;20546;-72
2021/09/19 14:17:45;;;;;;;3.08;2.97;;;;;;;12.00;61.94;102671.63;6311301;28;20547;-73
2021/09/19 14:20:51;;;;;;;2.72;2.72;;;;;;;12.05;62.55;102680.13;6311240;28;20471;-70
2021/09/19 14:23:55;;;;;;;2.80;2.70;;;;;;;11.99;62.77;102678.13;6311114;28;20465;-71